createdAt,value
2018-11-07T00:00:52.494Z,12.00
2018-11-07T00:03:07.650Z,12.00
2018-11-07T00:05:15.204Z,12.10
2018-11-07T00:07:20.070Z,12.20
2018-11-07T00:09:24.353Z,12.10
2018-11-07T00:11:36.656Z,12.10
2018-11-07T00:13:43.898Z,12.10
2018-11-07T00:15:50.500Z,12.20
2018-11-07T00:17:55.469Z,12.20
2018-11-07T00:20:02.393Z,12.20
2018-11-07T00:22:09.544Z,12.10
2018-11-07T00:24:14.848Z,12.10
2018-11-07T00:26:19.598Z,12.10
2018-11-07T00:28:28.582Z,12.20
2018-11-07T00:30:34.235Z,12.20
2018-11-07T00:32:40.659Z,12.20
2018-11-07T00:36:56.958Z,12.30
2018-11-07T00:39:03.424Z,12.20
2018-11-07T00:41:07.556Z,12.20
2018-11-07T00:43:12.079Z,12.00
2018-11-07T00:45:16.131Z,11.90
2018-11-07T00:47:21.214Z,11.80
2018-11-07T00:49:26.785Z,11.80
2018-11-07T00:51:31.172Z,11.80
2018-11-07T00:53:35.191Z,11.80
2018-11-07T00:55:41.304Z,11.70
2018-11-07T00:57:47.136Z,11.80
2018-11-07T00:59:51.719Z,11.80
2018-11-07T01:01:57.037Z,11.70
2018-11-07T01:04:02.713Z,11.60
2018-11-07T01:06:06.793Z,11.60
2018-11-07T01:08:11.559Z,11.60
2018-11-07T01:10:17.784Z,11.60
2018-11-07T01:12:22.839Z,11.60
2018-11-07T01:14:27.840Z,11.60
2018-11-07T01:16:35.604Z,11.50
2018-11-07T01:18:39.641Z,11.50
2018-11-07T01:20:44.551Z,11.40
2018-11-07T01:22:48.550Z,11.40
2018-11-07T01:24:54.916Z,11.40
2018-11-07T01:26:59.224Z,11.40
2018-11-07T01:29:04.499Z,11.40
2018-11-07T01:31:09.664Z,11.40
2018-11-07T01:33:14.045Z,11.30
2018-11-07T01:35:19.072Z,11.30
2018-11-07T01:37:23.102Z,11.30
2018-11-07T01:39:27.445Z,11.30
2018-11-07T01:41:32.495Z,11.30
2018-11-07T01:43:37.567Z,11.30
2018-11-07T01:45:41.669Z,11.30
2018-11-07T01:47:46.394Z,11.20
2018-11-07T01:49:50.379Z,11.30
2018-11-07T01:51:54.995Z,11.30
2018-11-07T01:53:59.287Z,11.30
2018-11-07T01:56:04.757Z,11.30
2018-11-07T01:58:09.261Z,11.40
2018-11-07T02:00:15.250Z,11.30
2018-11-07T02:02:19.257Z,11.30
2018-11-07T02:04:23.674Z,11.30
2018-11-07T02:06:27.663Z,11.30
2018-11-07T02:08:32.543Z,11.30
2018-11-07T02:10:37.976Z,11.30
2018-11-07T02:12:42.158Z,11.20
2018-11-07T02:14:46.805Z,11.20
2018-11-07T02:16:51.149Z,11.30
2018-11-07T02:18:56.668Z,11.30
2018-11-07T02:21:05.385Z,11.40
2018-11-07T02:23:12.760Z,11.40
2018-11-07T02:25:20.761Z,11.50
2018-11-07T02:27:25.553Z,11.40
2018-11-07T02:29:30.127Z,11.40
2018-11-07T02:31:35.711Z,11.50
2018-11-07T02:33:40.502Z,11.50
2018-11-07T02:35:44.547Z,11.50
2018-11-07T02:37:48.624Z,11.50
2018-11-07T02:42:07.649Z,11.60
2018-11-07T02:44:58.866Z,11.60
2018-11-07T02:47:05.387Z,11.70
2018-11-07T02:49:12.416Z,11.70
2018-11-07T02:51:17.068Z,11.80
2018-11-07T02:53:21.211Z,11.80
2018-11-07T02:55:26.880Z,11.80
2018-11-07T02:57:32.047Z,11.80
2018-11-07T02:59:37.421Z,11.90
2018-11-07T03:01:42.671Z,12.00
2018-11-07T03:03:47.288Z,12.00
2018-11-07T03:05:51.319Z,12.10
2018-11-07T03:07:55.656Z,12.10
2018-11-07T03:09:59.747Z,12.10
2018-11-07T03:12:03.771Z,12.10
2018-11-07T03:14:09.706Z,12.00
2018-11-07T03:16:13.628Z,11.80
2018-11-07T03:18:17.645Z,11.70
2018-11-07T03:20:22.035Z,11.70
2018-11-07T03:22:26.398Z,11.60
2018-11-07T03:24:38.058Z,11.60
2018-11-07T03:26:42.152Z,11.70
2018-11-07T03:28:46.122Z,11.70
2018-11-07T03:30:51.081Z,11.70
2018-11-07T03:32:55.471Z,11.70
2018-11-07T03:35:00.069Z,11.60
2018-11-07T03:37:03.995Z,11.60
2018-11-07T03:39:11.694Z,11.40
2018-11-07T03:41:15.695Z,11.10
2018-11-07T03:43:20.671Z,10.90
2018-11-07T03:45:30.435Z,10.70
2018-11-07T03:47:34.466Z,10.80
2018-11-07T03:49:38.695Z,11.00
2018-11-07T03:51:42.706Z,11.00
2018-11-07T03:53:46.667Z,11.00
2018-11-07T03:55:54.582Z,10.90
2018-11-07T03:58:04.698Z,11.00
2018-11-07T04:00:09.703Z,11.00
2018-11-07T04:02:13.740Z,11.10
2018-11-07T04:04:17.985Z,11.10
2018-11-07T04:06:22.012Z,11.10
2018-11-07T04:08:26.756Z,11.10
2018-11-07T04:10:31.028Z,10.90
2018-11-07T04:12:35.056Z,11.00
2018-11-07T04:14:39.042Z,11.00
2018-11-07T04:16:42.986Z,11.00
2018-11-07T04:18:46.931Z,11.00
2018-11-07T04:20:52.103Z,11.00
2018-11-07T04:22:56.572Z,11.10
2018-11-07T04:25:00.559Z,11.10
2018-11-07T04:27:04.520Z,11.00
2018-11-07T04:29:08.936Z,11.00
2018-11-07T04:31:12.888Z,10.90
2018-11-07T04:33:16.835Z,10.90
2018-11-07T04:35:29.741Z,11.00
2018-11-07T04:37:33.802Z,11.00
2018-11-07T04:39:38.205Z,10.90
2018-11-07T04:41:42.628Z,10.70
2018-11-07T04:43:49.494Z,10.40
2018-11-07T04:45:53.585Z,10.00
2018-11-07T04:47:58.070Z,9.50
2018-11-07T04:50:02.280Z,9.10
2018-11-07T04:52:06.198Z,9.00
2018-11-07T04:54:10.880Z,8.80
2018-11-07T04:56:16.127Z,8.70
2018-11-07T04:58:20.069Z,8.60
2018-11-07T05:00:24.508Z,8.60
2018-11-07T05:02:28.539Z,8.70
2018-11-07T05:04:32.904Z,8.90
2018-11-07T05:06:37.171Z,8.80
2018-11-07T05:08:41.535Z,8.80
2018-11-07T05:10:46.283Z,9.10
2018-11-07T05:12:54.281Z,9.00
2018-11-07T05:14:58.831Z,8.90
2018-11-07T05:17:03.587Z,8.80
2018-11-07T05:19:08.735Z,8.90
2018-11-07T05:21:12.686Z,9.00
2018-11-07T05:23:16.682Z,9.20
2018-11-07T05:25:23.088Z,9.20
2018-11-07T05:27:27.167Z,9.20
2018-11-07T05:29:31.419Z,8.80
2018-11-07T05:31:35.583Z,8.70
2018-11-07T05:33:39.613Z,8.70
2018-11-07T05:35:44.557Z,8.90
2018-11-07T05:37:49.878Z,9.30
2018-11-07T05:39:54.801Z,9.40
2018-11-07T05:41:58.744Z,9.70
2018-11-07T05:44:03.594Z,9.80
2018-11-07T05:46:07.809Z,9.90
2018-11-07T05:48:11.973Z,10.10
2018-11-07T05:50:16.411Z,10.20
2018-11-07T05:52:20.347Z,10.20
2018-11-07T05:54:24.459Z,10.30
2018-11-07T05:56:29.686Z,10.30
2018-11-07T05:58:35.650Z,10.30
2018-11-07T06:00:39.857Z,10.20
2018-11-07T06:02:45.129Z,10.10
2018-11-07T06:04:49.254Z,10.10
2018-11-07T06:06:53.344Z,9.90
2018-11-07T06:08:58.048Z,9.90
2018-11-07T06:11:03.663Z,9.70
2018-11-07T06:13:07.658Z,9.60
2018-11-07T06:15:13.847Z,9.30
2018-11-07T06:17:17.968Z,9.00
2018-11-07T06:19:22.716Z,9.00
2018-11-07T06:21:26.971Z,8.90
2018-11-07T06:23:31.304Z,8.80
2018-11-07T06:25:35.336Z,8.70
2018-11-07T06:27:39.810Z,8.70
2018-11-07T06:29:46.705Z,8.80
2018-11-07T06:31:50.771Z,8.90
2018-11-07T06:33:55.119Z,9.00
2018-11-07T06:35:59.801Z,9.10
2018-11-07T06:38:06.113Z,8.90
2018-11-07T06:40:11.390Z,8.80
2018-11-07T06:42:19.110Z,8.70
2018-11-07T06:44:25.448Z,8.40
2018-11-07T06:46:31.795Z,8.20
2018-11-07T06:48:37.370Z,8.10
2018-11-07T06:50:43.576Z,8.10
2018-11-07T06:52:47.892Z,7.90
2018-11-07T06:54:51.901Z,7.90
2018-11-07T06:56:57.279Z,7.90
2018-11-07T06:59:02.584Z,8.10
2018-11-07T07:01:08.107Z,8.10
2018-11-07T07:03:12.111Z,8.20
2018-11-07T07:05:16.287Z,8.10
2018-11-07T07:07:20.983Z,8.30
2018-11-07T07:09:24.928Z,8.30
2018-11-07T07:11:30.111Z,8.50
2018-11-07T07:13:38.061Z,8.50
2018-11-07T07:15:45.559Z,8.40
2018-11-07T07:17:54.655Z,8.60
2018-11-07T07:19:58.800Z,8.70
2018-11-07T07:24:41.479Z,8.50
2018-11-07T07:26:45.503Z,8.50
2018-11-07T07:28:51.217Z,8.50
2018-11-07T07:30:57.305Z,8.50
2018-11-07T07:33:02.740Z,8.60
2018-11-07T07:35:07.098Z,8.70
2018-11-07T07:37:12.915Z,8.80
2018-11-07T07:39:17.048Z,8.80
2018-11-07T07:41:22.678Z,9.00
2018-11-07T07:43:29.135Z,9.20
2018-11-07T07:45:33.825Z,9.50
2018-11-07T07:47:39.732Z,9.60
2018-11-07T07:49:50.289Z,9.70
2018-11-07T07:51:54.723Z,9.90
2018-11-07T07:53:58.772Z,10.20
2018-11-07T07:56:03.236Z,10.30
2018-11-07T07:58:08.631Z,10.30
2018-11-07T08:00:16.151Z,10.40
2018-11-07T08:02:22.019Z,10.60
2018-11-07T08:04:57.290Z,10.70
2018-11-07T08:07:02.239Z,11.00
2018-11-07T08:09:12.278Z,11.20
2018-11-07T08:11:18.375Z,11.40
2018-11-07T08:13:23.156Z,11.70
2018-11-07T08:15:29.389Z,11.90
2018-11-07T08:17:33.497Z,11.80
2018-11-07T08:19:37.489Z,11.80
2018-11-07T08:21:42.424Z,12.00
2018-11-07T08:23:48.153Z,12.30
2018-11-07T08:25:52.114Z,12.30
2018-11-07T08:27:56.441Z,12.90
2018-11-07T08:30:00.528Z,13.50
2018-11-07T08:32:07.758Z,13.90
2018-11-07T08:34:11.952Z,13.90
2018-11-07T08:36:19.470Z,14.00
2018-11-07T08:38:25.241Z,13.90
2018-11-07T08:40:31.267Z,13.70
2018-11-07T08:42:35.225Z,13.70
2018-11-07T08:44:46.230Z,13.60
2018-11-07T08:46:57.680Z,13.60
2018-11-07T08:49:02.315Z,13.80
2018-11-07T08:51:08.058Z,13.80
2018-11-07T08:53:15.018Z,13.70
2018-11-07T08:55:21.184Z,13.80
2018-11-07T08:57:26.794Z,13.90
2018-11-07T08:59:31.328Z,13.90
2018-11-07T09:03:44.269Z,14.20
2018-11-07T09:05:48.300Z,14.30
2018-11-07T09:07:55.920Z,14.40
2018-11-07T09:10:00.615Z,14.50
2018-11-07T09:12:07.038Z,14.50
2018-11-07T09:14:12.042Z,14.40
2018-11-07T09:16:22.986Z,14.20
2018-11-07T09:18:27.529Z,14.10
2018-11-07T09:20:32.465Z,14.10
2018-11-07T09:22:37.208Z,14.30
2018-11-07T09:24:41.552Z,14.50
2018-11-07T09:26:47.383Z,14.60
2018-11-07T09:28:51.355Z,14.80
2018-11-07T09:30:55.453Z,14.90
2018-11-07T09:32:59.534Z,15.00
2018-11-07T09:35:06.901Z,15.00
2018-11-07T09:37:13.452Z,15.00
2018-11-07T09:39:20.335Z,15.20
2018-11-07T09:41:24.296Z,15.00
2018-11-07T09:45:43.395Z,15.40
2018-11-07T09:47:47.799Z,15.70
2018-11-07T09:49:52.484Z,15.90
2018-11-07T09:51:57.229Z,15.80
2018-11-07T09:54:02.427Z,15.70
2018-11-07T09:56:13.280Z,16.10
2018-11-07T09:58:17.475Z,16.40
2018-11-07T10:00:24.300Z,16.60
2018-11-07T10:02:28.672Z,17.00
2018-11-07T10:04:33.787Z,17.00
2018-11-07T10:06:38.387Z,17.30
2018-11-07T10:08:43.433Z,17.50
2018-11-07T10:10:56.352Z,17.50
2018-11-07T10:13:01.973Z,17.60
2018-11-07T10:15:06.963Z,17.70
2018-11-07T10:17:12.177Z,17.80
2018-11-07T10:19:16.206Z,18.00
2018-11-07T10:21:20.200Z,17.90
2018-11-07T10:23:25.587Z,18.10
2018-11-07T10:25:29.669Z,18.10
2018-11-07T10:27:35.771Z,18.30
2018-11-07T10:29:40.672Z,18.40
2018-11-07T10:31:47.522Z,18.40
2018-11-07T10:33:55.791Z,18.40
2018-11-07T10:35:59.789Z,18.40
2018-11-07T10:38:05.591Z,18.30
2018-11-07T10:40:19.408Z,18.50
2018-11-07T10:42:23.444Z,18.70
2018-11-07T10:44:29.048Z,18.90
2018-11-07T10:46:34.623Z,19.00
2018-11-07T10:48:38.729Z,18.90
2018-11-07T10:50:43.789Z,19.30
2018-11-07T10:52:48.464Z,19.30
2018-11-07T10:54:52.457Z,19.60
2018-11-07T10:56:57.909Z,19.80
2018-11-07T10:59:02.315Z,20.10
2018-11-07T11:01:13.070Z,20.30
2018-11-07T11:03:22.892Z,20.60
2018-11-07T11:05:27.280Z,20.40
2018-11-07T11:07:31.292Z,20.50
2018-11-07T11:09:36.671Z,20.80
2018-11-07T11:11:40.803Z,20.80
2018-11-07T11:13:44.837Z,21.00
2018-11-07T11:15:49.572Z,21.30
2018-11-07T11:17:58.139Z,21.00
2018-11-07T11:20:02.111Z,21.10
2018-11-07T11:22:08.008Z,21.30
2018-11-07T11:24:14.778Z,21.40
2018-11-07T11:26:21.543Z,21.70
2018-11-07T11:28:29.462Z,21.70
2018-11-07T11:30:37.543Z,21.80
2018-11-07T11:32:41.669Z,21.90
2018-11-07T11:34:51.845Z,21.90
2018-11-07T11:36:59.052Z,22.10
2018-11-07T11:39:06.743Z,22.20
2018-11-07T11:41:16.325Z,22.20
2018-11-07T11:43:24.404Z,21.90
2018-11-07T11:45:34.261Z,21.80
2018-11-07T11:47:39.745Z,21.80
2018-11-07T11:49:47.385Z,21.90
2018-11-07T11:51:52.532Z,21.90
2018-11-07T11:53:57.927Z,21.90
2018-11-07T11:56:03.251Z,22.10
2018-11-07T11:58:09.972Z,22.30
2018-11-07T12:00:21.487Z,22.50
2018-11-07T12:02:26.930Z,22.60
2018-11-07T12:04:33.769Z,22.40
2018-11-07T12:06:40.901Z,22.40
2018-11-07T12:08:49.089Z,22.40
2018-11-07T12:10:53.608Z,22.50
2018-11-07T12:13:11.701Z,22.60
2018-11-07T12:15:17.743Z,22.70
2018-11-07T12:17:22.308Z,22.90
2018-11-07T12:19:26.342Z,22.90
2018-11-07T12:21:30.737Z,22.70
2018-11-07T12:23:35.545Z,22.70
2018-11-07T12:25:40.471Z,22.80
2018-11-07T12:27:47.208Z,23.10
2018-11-07T12:29:59.950Z,22.80
2018-11-07T12:32:04.523Z,22.60
2018-11-07T12:34:10.655Z,22.40
2018-11-07T12:36:22.251Z,22.20
2018-11-07T12:38:27.670Z,22.40
2018-11-07T12:40:34.043Z,22.60
2018-11-07T12:42:42.631Z,22.80
2018-11-07T12:44:47.831Z,22.70
2018-11-07T12:46:53.863Z,22.40
2018-11-07T12:49:01.507Z,22.10
2018-11-07T12:51:06.743Z,21.80
2018-11-07T12:53:12.912Z,21.80
2018-11-07T12:55:17.571Z,21.80
2018-11-07T12:57:21.681Z,21.90
2018-11-07T12:59:26.122Z,22.10
2018-11-07T13:01:30.614Z,22.50
2018-11-07T13:03:38.686Z,22.40
2018-11-07T13:05:44.484Z,22.40
2018-11-07T13:07:49.848Z,22.10
2018-11-07T13:09:55.123Z,22.10
2018-11-07T13:12:01.871Z,22.10
2018-11-07T13:14:05.934Z,22.20
2018-11-07T13:16:11.452Z,22.20
2018-11-07T13:18:16.644Z,22.00
2018-11-07T13:20:22.149Z,22.10
2018-11-07T13:22:26.412Z,22.30
2018-11-07T13:24:30.842Z,22.30
2018-11-07T13:26:34.904Z,22.00
2018-11-07T13:28:43.452Z,22.10
2018-11-07T13:30:53.067Z,22.20
2018-11-07T13:32:57.418Z,22.30
2018-11-07T13:35:02.388Z,22.40
2018-11-07T13:37:08.418Z,22.30
2018-11-07T13:39:13.661Z,22.30
2018-11-07T13:41:18.216Z,22.40
2018-11-07T13:43:23.430Z,22.40
2018-11-07T13:45:32.333Z,22.30
2018-11-07T13:47:37.408Z,22.40
2018-11-07T13:49:44.378Z,22.50
2018-11-07T13:51:49.202Z,22.20
2018-11-07T13:53:53.824Z,22.10
2018-11-07T13:55:58.052Z,22.10
2018-11-07T13:58:02.178Z,22.20
2018-11-07T14:00:09.826Z,22.20
2018-11-07T14:02:14.724Z,22.10
2018-11-07T14:04:19.623Z,22.10
2018-11-07T14:06:24.454Z,22.20
2018-11-07T14:08:30.073Z,22.20
2018-11-07T14:10:36.317Z,22.20
2018-11-07T14:12:40.591Z,22.30
2018-11-07T14:14:44.945Z,22.20
2018-11-07T14:16:49.613Z,22.20
2018-11-07T14:18:53.573Z,22.20
2018-11-07T14:20:58.714Z,22.20
2018-11-07T14:23:02.777Z,22.10
2018-11-07T14:25:08.722Z,22.00
2018-11-07T14:27:13.032Z,21.80
2018-11-07T14:29:17.122Z,21.80
2018-11-07T14:31:21.860Z,21.70
2018-11-07T14:33:27.280Z,21.60
2018-11-07T14:35:32.307Z,21.40
2018-11-07T14:37:38.536Z,21.20
2018-11-07T14:39:47.072Z,21.10
2018-11-07T14:41:54.304Z,20.90
2018-11-07T14:43:58.305Z,20.80
2018-11-07T14:46:04.994Z,20.70
2018-11-07T14:48:08.992Z,20.60
2018-11-07T14:50:14.269Z,20.50
2018-11-07T14:52:22.699Z,20.40
2018-11-07T14:54:27.769Z,20.30
2018-11-07T14:56:39.676Z,20.20
2018-11-07T14:58:43.675Z,20.10
2018-11-07T15:00:49.583Z,20.00
2018-11-07T15:03:00.447Z,20.00
2018-11-07T15:05:06.406Z,19.90
2018-11-07T15:07:16.112Z,19.90
2018-11-07T15:09:20.091Z,19.90
2018-11-07T15:11:33.673Z,19.80
2018-11-07T15:13:39.015Z,19.80
2018-11-07T15:15:43.093Z,19.80
2018-11-07T15:17:48.869Z,19.80
2018-11-07T15:19:54.129Z,19.70
2018-11-07T15:24:19.475Z,19.60
2018-11-07T15:26:24.367Z,19.60
2018-11-07T15:28:29.511Z,19.60
2018-11-07T15:30:36.463Z,19.50
2018-11-07T15:32:42.067Z,19.40
2018-11-07T15:34:47.817Z,19.30
2018-11-07T15:36:54.394Z,19.30
2018-11-07T15:39:00.256Z,19.20
2018-11-07T15:41:08.266Z,19.00
2018-11-07T15:43:18.134Z,18.90
2018-11-07T15:45:30.320Z,18.80
2018-11-07T15:47:41.692Z,18.80
2018-11-07T15:49:55.270Z,18.70
2018-11-07T15:52:04.067Z,18.60
2018-11-07T15:54:09.326Z,18.50
2018-11-07T15:56:18.520Z,18.40
2018-11-07T15:58:22.573Z,18.30
2018-11-07T16:00:28.066Z,18.30
2018-11-07T16:02:33.237Z,18.20
2018-11-07T16:04:39.964Z,18.10
2018-11-07T16:06:47.574Z,17.90
2018-11-07T16:08:53.055Z,17.80
2018-11-07T16:10:58.552Z,17.50
2018-11-07T16:13:03.415Z,17.50
2018-11-07T16:15:09.114Z,17.30
2018-11-07T16:17:13.273Z,17.30
2018-11-07T16:19:18.101Z,17.30
2018-11-07T16:21:25.728Z,17.10
2018-11-07T16:23:29.683Z,17.00
2018-11-07T16:25:34.562Z,16.40
2018-11-07T16:27:40.265Z,15.70
2018-11-07T16:29:45.939Z,15.30
2018-11-07T16:31:51.741Z,14.90
2018-11-07T16:33:55.801Z,14.50
2018-11-07T16:36:01.757Z,14.30
2018-11-07T16:38:08.755Z,14.00
2018-11-07T16:40:19.448Z,13.90
2018-11-07T16:42:25.352Z,14.00
2018-11-07T16:44:37.914Z,14.10
2018-11-07T16:46:48.005Z,14.00
2018-11-07T16:48:52.001Z,14.10
2018-11-07T16:50:57.624Z,13.90
2018-11-07T16:53:05.301Z,13.90
2018-11-07T16:55:10.769Z,13.90
2018-11-07T16:57:17.507Z,13.90
2018-11-07T16:59:24.290Z,13.80
2018-11-07T17:01:32.459Z,13.80
2018-11-07T17:03:38.849Z,13.90
2018-11-07T17:05:46.295Z,13.80
2018-11-07T17:07:52.475Z,13.90
2018-11-07T17:09:56.502Z,14.20
2018-11-07T17:12:00.949Z,14.40
2018-11-07T17:14:05.388Z,14.50
2018-11-07T17:16:11.152Z,14.50
2018-11-07T17:18:15.425Z,14.50
2018-11-07T17:20:22.660Z,14.60
2018-11-07T17:22:27.083Z,14.60
2018-11-07T17:24:31.583Z,14.80
2018-11-07T17:26:36.326Z,15.10
2018-11-07T17:28:40.314Z,15.50
2018-11-07T17:30:45.891Z,15.80
2018-11-07T17:32:49.949Z,15.90
2018-11-07T17:34:56.107Z,16.10
2018-11-07T17:37:01.358Z,16.20
2018-11-07T17:39:09.128Z,16.30
2018-11-07T17:41:13.971Z,16.40
2018-11-07T17:43:18.273Z,16.30
2018-11-07T17:45:28.326Z,16.40
2018-11-07T17:47:33.251Z,16.30
2018-11-07T17:49:37.264Z,16.40
2018-11-07T17:51:46.312Z,16.40
2018-11-07T17:53:52.352Z,16.40
2018-11-07T17:55:58.398Z,16.40
2018-11-07T17:58:03.990Z,16.40
2018-11-07T18:00:16.829Z,16.40
2018-11-07T18:02:25.723Z,16.30
2018-11-07T18:04:30.229Z,16.30
2018-11-07T18:06:35.019Z,16.40
2018-11-07T18:08:41.233Z,16.30
2018-11-07T18:10:45.831Z,16.40
2018-11-07T18:12:52.514Z,16.40
2018-11-07T18:14:58.357Z,16.40
2018-11-07T18:17:03.076Z,16.30
2018-11-07T18:19:08.617Z,16.20
2018-11-07T18:21:13.729Z,16.20
2018-11-07T18:23:17.687Z,16.20
2018-11-07T18:25:24.672Z,16.10
2018-11-07T18:27:30.320Z,16.10
2018-11-07T18:29:34.696Z,16.00
2018-11-07T18:31:40.089Z,16.10
2018-11-07T18:33:46.581Z,16.00
2018-11-07T18:35:51.846Z,15.90
2018-11-07T18:37:57.182Z,15.90
2018-11-07T18:40:01.246Z,15.80
2018-11-07T18:42:08.434Z,15.80
2018-11-07T18:44:12.753Z,15.80
2018-11-07T18:46:17.788Z,15.80
2018-11-07T18:48:21.774Z,15.70
2018-11-07T18:50:25.751Z,15.70
2018-11-07T18:52:29.756Z,15.70
2018-11-07T18:54:33.860Z,15.70
2018-11-07T18:56:38.795Z,15.60
2018-11-07T18:58:43.506Z,15.60
2018-11-07T19:00:50.405Z,15.60
2018-11-07T19:02:55.793Z,15.50
2018-11-07T19:04:59.744Z,15.50
2018-11-07T19:07:03.811Z,15.40
2018-11-07T19:09:09.665Z,15.30
2018-11-07T19:11:15.336Z,15.30
2018-11-07T19:18:13.014Z,15.10
2018-11-07T19:20:25.158Z,15.10
2018-11-07T19:22:38.581Z,15.10
2018-11-07T19:24:51.975Z,15.10
2018-11-07T19:27:09.760Z,15.00
2018-11-07T19:29:18.221Z,15.00
2018-11-07T19:31:26.563Z,15.00
2018-11-07T19:33:40.506Z,15.00
2018-11-07T19:35:53.745Z,15.10
2018-11-07T19:38:12.533Z,15.10
2018-11-07T19:40:24.059Z,15.10
2018-11-07T19:42:43.915Z,15.20
2018-11-07T19:44:59.435Z,15.20
2018-11-07T19:47:12.079Z,15.20
2018-11-07T19:49:23.998Z,15.20
2018-11-07T19:51:33.952Z,15.20
2018-11-07T19:53:43.258Z,15.20
2018-11-07T19:55:50.337Z,15.30
2018-11-07T19:58:00.750Z,15.40
2018-11-07T20:00:17.467Z,15.40
2018-11-07T20:02:28.108Z,15.50
2018-11-07T20:04:33.102Z,15.50
2018-11-07T20:06:44.700Z,15.60
2018-11-07T20:08:50.207Z,15.60
2018-11-07T20:10:58.388Z,15.60
2018-11-07T20:13:19.365Z,15.60
2018-11-07T20:15:44.657Z,15.70
2018-11-07T20:17:54.501Z,15.70
2018-11-07T20:20:02.717Z,15.60
2018-11-07T20:22:11.972Z,15.60
2018-11-07T20:24:36.647Z,15.60
2018-11-07T20:26:45.211Z,15.50
2018-11-07T20:28:59.426Z,15.60
2018-11-07T20:31:08.188Z,15.60
2018-11-07T20:33:12.919Z,15.60
2018-11-07T20:35:24.020Z,15.60
2018-11-07T20:37:35.550Z,15.60
2018-11-07T20:39:46.500Z,15.70
2018-11-07T20:42:24.043Z,15.70
2018-11-07T20:44:56.407Z,15.70
2018-11-07T20:47:53.220Z,15.70
2018-11-07T20:50:50.413Z,15.60
2018-11-07T20:53:46.433Z,15.50
2018-11-07T20:55:52.378Z,15.50
2018-11-07T20:57:57.994Z,15.50
2018-11-07T21:00:04.342Z,15.50
2018-11-07T21:02:11.106Z,15.40
2018-11-07T21:04:15.132Z,15.40
2018-11-07T21:06:22.666Z,15.40
2018-11-07T21:08:28.889Z,15.30
2018-11-07T21:10:33.777Z,15.20
2018-11-07T21:12:39.167Z,15.20
2018-11-07T21:14:43.607Z,15.30
2018-11-07T21:16:51.370Z,15.30
2018-11-07T21:18:58.484Z,15.30
2018-11-07T21:21:13.766Z,15.20
2018-11-07T21:23:20.054Z,15.20
2018-11-07T21:25:25.701Z,15.10
2018-11-07T21:27:30.366Z,15.10
2018-11-07T21:29:35.817Z,15.10
2018-11-07T21:31:42.649Z,15.10
2018-11-07T21:33:48.694Z,15.00
2018-11-07T21:35:53.984Z,14.90
2018-11-07T21:37:59.182Z,14.90
2018-11-07T21:40:03.536Z,14.90
2018-11-07T21:42:08.954Z,14.90
2018-11-07T21:44:14.584Z,14.80
2018-11-07T21:46:21.668Z,14.80
2018-11-07T21:48:26.666Z,14.80
2018-11-07T21:50:30.756Z,14.80
2018-11-07T21:52:37.734Z,14.80
2018-11-07T21:54:47.173Z,14.80
2018-11-07T21:56:53.651Z,14.80
2018-11-07T21:58:58.316Z,14.80
2018-11-07T22:01:05.105Z,14.70
2018-11-07T22:03:10.223Z,14.70
2018-11-07T22:05:16.886Z,14.70
2018-11-07T22:07:21.553Z,14.60
2018-11-07T22:09:28.544Z,14.60
2018-11-07T22:11:37.670Z,14.60
2018-11-07T22:13:43.027Z,14.60
2018-11-07T22:15:49.795Z,14.50
2018-11-07T22:17:56.539Z,14.40
2018-11-07T22:20:01.400Z,14.50
2018-11-07T22:22:06.889Z,14.50
2018-11-07T22:24:11.834Z,14.60
2018-11-07T22:26:17.537Z,14.60
2018-11-07T22:28:25.570Z,14.70
2018-11-07T22:30:33.262Z,14.90
2018-11-07T22:32:39.443Z,14.90
2018-11-07T22:34:46.347Z,15.00
2018-11-07T22:36:51.150Z,15.20
2018-11-07T22:38:56.449Z,15.30
2018-11-07T22:41:13.528Z,15.40
2018-11-07T22:43:17.529Z,15.30
2018-11-07T22:45:25.547Z,15.30
2018-11-07T22:47:31.236Z,15.30
2018-11-07T22:49:36.330Z,15.30
2018-11-07T22:51:42.336Z,15.30
2018-11-07T22:53:52.637Z,15.30
2018-11-07T22:55:57.977Z,15.30
2018-11-07T22:58:01.935Z,15.20
2018-11-07T23:00:14.598Z,15.20
2018-11-07T23:02:19.034Z,15.00
2018-11-07T23:04:23.976Z,14.90
2018-11-07T23:06:46.578Z,15.00
2018-11-07T23:08:51.067Z,15.00
2018-11-07T23:10:57.217Z,15.00
2018-11-07T23:13:03.407Z,15.00
2018-11-07T23:15:07.648Z,15.00
2018-11-07T23:17:12.996Z,14.90
2018-11-07T23:19:21.580Z,14.90
2018-11-07T23:21:27.448Z,14.90
2018-11-07T23:23:31.406Z,14.90
2018-11-07T23:25:35.679Z,14.90
2018-11-07T23:27:39.770Z,14.90
2018-11-07T23:32:03.684Z,14.90
2018-11-07T23:34:08.038Z,14.90
2018-11-07T23:36:13.788Z,15.00
2018-11-07T23:38:18.507Z,15.00
2018-11-07T23:40:22.685Z,15.00
2018-11-07T23:42:28.808Z,15.00
2018-11-07T23:44:33.924Z,15.10
2018-11-07T23:46:38.739Z,15.10
2018-11-07T23:48:42.708Z,15.20
2018-11-07T23:50:48.987Z,15.20
2018-11-07T23:52:53.709Z,15.30
2018-11-07T23:54:58.553Z,15.30
2018-11-07T23:57:03.137Z,15.40
2018-11-07T23:59:08.039Z,15.40
